Jump to content


DELTA AIRLINES FLIGHT DL2199 FLOWN ON 06-02-2017 BY CAPTAIN A GREAVES

Pilot StatsCaptain A Greaves (LDP528) • 13.8 total hours • 8 total flights [View Logbook]
FLIGHT DETAILS
StatusReceived and approved on 2017-06-01 at 20:06:26
Origin AirportMinneapolis-St Paul Intl (KMSP) • Minneapolis, Minnesota, United States (841 feet MSL)
Filed Flight PlanKMSP GEP J36 ODI J30 BRIBE J90 OBK KMDW
Destination AirportChicago Midway Intl (KMDW) • Chicago, Illinois, United States (620 feet MSL)
Alternate AirportNone Filed
AirlineDelta Airlines
AircraftAirbus A320 (320 / A320)
FS Aircraft UsedAirbus A320-214 Delta Airlines
Cruising AltitudeFL350
Distance Flown303 nautical miles
Passengers Onboard80 passengers (53.33% full)
DEPARTURE DETAILS
Time Out18:21:23
Taxi Data130,731 lbs total with 18,691 lbs of fuel onboard
Takeoff Data18:33:45 (12 minutes after leaving gate/ramp) • 130,290 lbs total • 7° pitch at 174 knots
Departure METARKMSP 012153Z 14007KT 10SM FEW300 26/02 A3001 RMK AO2 SLP160 T02560017
ARRIVAL DETAILS
Landing Data19:34:04 • 123,842 lbs total • 4° pitch doing 131 knots at a rate of -283.74 feet/minute with 11,499 lbs of fuel onboard
Time In19:41:43 (8 minutes after landing)
Ramp Weight123,539 lbs total
Total Fuel Used7,192 lbs
Total Block Time01:20:21 (1.3 hours) while 20 minutes were spent on the ground
Arrival METARKMDW 012353Z 09008KT 10SM FEW250 22/04 A3002 RMK AO2 SLP161 T02220044 10261 20222 56004
MISCELLANEOUS DETAILS
LiveDISPATCH Version4.8.3.1
FS Version
FSUIPC Version4.96
OS VersionWindows 7 32-bit
Screen Resolution1920 x 1080
Pilot's CommentsNo Comments Reported
FLIGHT MAP